Station info - map view · info · telemetry · weather · raw · status · beacons · messages · bulletins · browse · moving · my account
Callsign, ship name or locator: Clear       
It is possible to search using wildcards (*?) after a prefix. Example: OH*
APRS station NE7IL-2 - show graphs
Map loading...
Comment: Honda
Mic-E message: En route
Location: 48°33.50' N 120°20.39' W - locator CN98TN93FX - show map - static map
37.2 miles West bearing 292° from Okanogan, Okanogan County, Washington, United States [?]
38.5 miles West bearing 286° from Omak, Okanogan County, Washington, United States
72.3 miles Southwest bearing 208° from Penticton, British Columbia, Canada
84.4 miles Southeast bearing 120° from Chilliwack, British Columbia, Canada
Last position: 2016-12-06 21:03:36 EST (16h9m ago)
2016-12-06 18:03:36 PST local time at Okanogan, United States [?]
Altitude: 2211 ft
Course: 179°
Device: Yaesu: FTM-400DR (rig)
Last path: NE7IL-2>TX3SUP via WIDE1-1,WIDE2-1,qAR,WINTHP (good)
Positions stored: 29922
Packet rate: 152 seconds between packets on average during 7585 seconds.
Other SSIDs: NE7IL-1 NE7IL-5 NE7IL-7
Stations near current position of NE7IL-2 - show more
callsign distance last heard - EST      callsign distance last heard - EST
NE7IL-123.8 yards 215°2016-11-22 13:01:26 MAZAMA135.1 yards 307°2016-12-07 13:03:37
KI6LWC-1495.1 yards 117°2016-12-06 17:55:21 NO7RF-130.4 miles 126°2016-12-07 13:00:04
NO7RF-20.5 miles 121°2016-12-01 18:49:31 NO7RF-30.5 miles 120°2016-12-05 12:48:36
CW66973.2 miles 301°2016-12-07 13:08:58 WA7MAZ-96.1 miles 307°2016-11-18 12:15:56
EW45306.1 miles 307°2016-12-07 13:08:23 KC7UJN-910.5 miles 140°2016-12-06 17:40:53
KB7SVP-910.5 miles 140°2016-11-26 17:24:41 WINTHP10.8 miles 141°2016-12-07 12:49:13
KF7UNI11.0 miles 141°2016-11-12 17:22:55 DW753811.1 miles 140°2016-12-07 13:02:36
EW714617.7 miles 130°2016-12-07 13:11:10 AMRS17.7 miles 142°2016-12-07 13:02:56
147.220MV19.5 miles 148°2016-12-07 13:11:26 444.800MV19.6 miles 148°2016-12-07 13:03:19
IRLP-350933.1 miles 126°2016-11-18 12:39:55
Stations which heard NE7IL-2 directly on radio –
callsign pkts first heard - EST last heard longest (tx => rx) longest at - EST
VE7RNA-10 1 2016-12-06 13:54:18 2016-12-06 13:54:18 CN97BM > CN88BV 132.9 miles 317° 2016-12-06 13:54:18
SOMTN 2 2016-12-06 13:28:39 2016-12-06 14:10:59 CN97EK > CN87HH 80.2 miles 265° 2016-12-06 14:10:59
MISION 39 2016-12-06 16:00:46 2016-12-06 17:25:38 CN97WS > CN97TG 35.8 miles 200° 2016-12-06 17:25:38
BADGER 20 2016-12-06 15:05:07 2016-12-06 18:09:10 CN97NE > CN97WO 45.1 miles 52° 2016-12-06 15:05:07
TIGER 6 2016-12-06 13:37:44 2016-12-06 13:46:23 CN87WN > CN97AM 6.6 miles 126° 2016-12-06 13:37:44
SNOPAS 18 2016-12-06 14:13:06 2016-12-06 14:39:10 CN97EK > CN97HK 8.6 miles 90° 2016-12-06 14:13:06
SNOVAL 5 2016-12-06 13:53:07 2016-12-06 14:15:37 CN97FJ > CN97DL 10.4 miles 301° 2016-12-06 14:15:37
KF0RY-10 1 2016-12-06 13:36:42 2016-12-06 13:36:42 CN87WN > CN87WP 4.7 miles 1° 2016-12-06 13:36:42
N7SET 1 2016-12-06 13:32:41 2016-12-06 13:32:41 CN87VN > CN87US 14.0 miles 341° 2016-12-06 13:32:41
KITTAS 4 2016-12-06 14:57:52 2016-12-06 15:15:12 CN97LE > CN97TA 32.0 miles 113° 2016-12-06 14:57:52
MAZAMA 32 2016-12-06 18:30:19 2016-12-06 20:43:36 CN98XH > CN98TN 21.2 miles 322° 2016-12-06 18:30:19
N7ER-10 1 2016-12-06 14:07:28 2016-12-06 14:07:28 CN97DL > CN87TW 46.4 miles 318° 2016-12-06 14:07:28
WINTHP 26 2016-12-06 18:25:40 2016-12-06 21:03:36 CN98WG > CN98VK 12.6 miles 337° 2016-12-06 18:25:40
DYERHL 7 2016-12-06 17:48:47 2016-12-06 18:51:45 CN98WI > DN08DB 28.4 miles 139° 2016-12-06 18:51:45
W7HR-1 5 2016-12-06 13:25:13 2016-12-06 14:01:41 CN97CL > CN87RN 35.6 miles 277° 2016-12-06 14:01:41
MICEC 1 2016-12-06 13:30:54 2016-12-06 13:30:54 CN87VO > CN87VO 0.5 miles 91° 2016-12-06 13:30:54
WF7R-10 1 2016-12-06 13:31:53 2016-12-06 13:31:53 CN87VN > CN87UU 19.4 miles 348° 2016-12-06 13:31:53
WA7VC-10 14 2016-12-06 13:16:57 2016-12-06 14:12:32 CN87UP > CN97DL 32.6 miles 113° 2016-12-06 13:16:57
N7MTC-10 1 2016-12-06 13:24:06 2016-12-06 13:24:06 CN87UO > CN87QP 13.0 miles 273° 2016-12-06 13:24:06
W7NPC-10 2 2016-12-06 13:27:36 2016-12-06 14:01:10 CN97CL > CN87RP 37.0 miles 289° 2016-12-06 14:01:10
W7EEE 9 2016-12-06 13:13:08 2016-12-06 14:05:47 CN97DL > CN87TP 31.6 miles 295° 2016-12-06 14:05:47
W7KKX-3 2 2016-12-06 13:29:38 2016-12-06 13:40:43 CN87XN > CN87VR 15.8 miles 325° 2016-12-06 13:40:43

Only position packets which were originated by the station are shown here. The range statistics show some extra long hops, because some digipeaters do not correctly add themselves to the digipeater path. Please check the raw packets.
About this site
This page shows real-time information collected from the Automatic Position Reporting System Internet network (APRS-IS). APRS is used by amateur (ham) radio operators to transmit real-time position information, weather data, telemetry and messages over the radio. A vehicle equipped with a GPS receiver, a VHF transmitter or HF transceiver and a small computer device called a tracker transmits it's location, speed and course in a small data packet, which is then received by a nearby iGate receiving site which forwards the packet on the Internet. Systems connected to the Internet can send information on the APRS-IS without a radio transmitter, or collect and display information transmitted anywhere in the world.
FAQ · Blog · Discussion group · Linking to aprs.fi · AIS sites · Service status · Database statistics · Advertising on aprs.fi · Technical details · API · Change log · Planned changes · Credits and thanks · Terms Of Service · iPhone/iPad APRS